Time;durP1;ratioP1;P1;durP2;ratioP2;P2;SDS_P1;SDS_P2;PMS_P1;PMS_P2;Temp;Humidity;BMP_temperature;BMP_pressure;BME280_temperature;BME280_humidity;BME280_pressure;Samples;Min_cycle;Max_cycle;Signal;HPM_P1;HPM_P2
2023/08/04 00:00:12;;;;;;;;;;;19.10;71.80;;;;;;4992761;28;19987;-70
2023/08/04 00:02:37;;;;;;;;;;;19.10;71.70;;;;;;4992680;28;19910;-71
2023/08/04 00:05:04;;;;;;;;;;;19.00;71.50;;;;;;4992420;28;20020;-70
2023/08/04 00:07:29;;;;;;;;;;;18.90;71.50;;;;;;4992539;28;19914;-71
2023/08/04 00:09:55;;;;;;;;;;;18.90;71.40;;;;;;4975122;28;20369;-70
2023/08/04 00:12:20;;;;;;;;;;;18.80;71.50;;;;;;4992801;28;19987;-71
2023/08/04 00:14:46;;;;;;;;;;;18.80;71.40;;;;;;4992729;28;19918;-70
2023/08/04 00:17:12;;;;;;;;;;;18.70;71.30;;;;;;4992475;28;19984;-71
2023/08/04 00:19:37;;;;;;;;;;;18.70;71.20;;;;;;4975303;28;19917;-70
2023/08/04 00:22:03;;;;;;;;;;;18.60;71.10;;;;;;4992373;28;19914;-71
2023/08/04 00:24:28;;;;;;;;;;;18.50;71.10;;;;;;4992506;28;19914;-70
2023/08/04 00:26:53;;;;;;;;;;;18.50;71.20;;;;;;4992476;28;19917;-70
2023/08/04 00:29:19;;;;;;;;;;;18.40;71.30;;;;;;4981920;28;19914;-71
2023/08/04 00:31:44;;;;;;;;;;;18.40;71.20;;;;;;4972876;28;19965;-71
2023/08/04 00:34:10;;;;;;;;;;;18.30;71.20;;;;;;4973010;28;20024;-71
2023/08/04 00:36:35;;;;;;;;;;;18.30;71.30;;;;;;4972734;28;19918;-70
2023/08/04 00:39:01;;;;;;;;;;;18.20;71.20;;;;;;4955406;28;19937;-70
2023/08/04 00:41:26;;;;;;;;;;;18.20;71.20;;;;;;4972955;28;19972;-70
2023/08/04 00:43:52;;;;;;;;;;;18.10;71.00;;;;;;4975427;28;19922;-71
2023/08/04 00:46:17;;;;;;;;;;;18.10;71.00;;;;;;4992240;28;19914;-71
2023/08/04 00:48:43;;;;;;;;;;;18.00;71.10;;;;;;4991847;28;19918;-71
2023/08/04 00:51:08;;;;;;;;;;;18.00;71.20;;;;;;4992068;28;19914;-70
2023/08/04 00:53:34;;;;;;;;;;;18.00;71.00;;;;;;4992398;28;19955;-71
2023/08/04 00:55:59;;;;;;;;;;;17.90;71.00;;;;;;4992158;28;19921;-71
2023/08/04 00:58:25;;;;;;;;;;;17.90;71.10;;;;;;4992076;28;20395;-71
2023/08/04 01:00:50;;;;;;;;;;;17.90;71.90;;;;;;4991846;28;20374;-70
2023/08/04 01:03:16;;;;;;;;;;;18.00;72.40;;;;;;4992248;28;20350;-70
2023/08/04 01:05:49;;;;;;;;;;;18.00;72.80;;;;;;4992024;28;19925;-71
2023/08/04 01:08:17;;;;;;;;;;;18.20;73.00;;;;;;4991864;28;19965;-70
2023/08/04 01:10:42;;;;;;;;;;;18.20;73.00;;;;;;4991900;28;19918;-71
2023/08/04 01:13:10;;;;;;;;;;;18.30;73.10;;;;;;4991906;28;19960;-70
2023/08/04 01:15:35;;;;;;;;;;;18.40;73.20;;;;;;4992163;28;19914;-71
2023/08/04 01:18:01;;;;;;;;;;;18.50;73.20;;;;;;4995632;28;19925;-71
2023/08/04 01:20:27;;;;;;;;;;;18.50;73.20;;;;;;4995576;28;20397;-71
2023/08/04 01:22:52;;;;;;;;;;;18.60;73.20;;;;;;4995577;28;19937;-70
2023/08/04 01:25:22;;;;;;;;;;;18.70;73.10;;;;;;4995457;28;19914;-71
2023/08/04 01:27:50;;;;;;;;;;;18.80;73.00;;;;;;4977985;28;20008;-70
2023/08/04 01:30:19;;;;;;;;;;;18.80;73.00;;;;;;4995374;28;19914;-66
2023/08/04 01:32:44;;;;;;;;;;;18.80;73.00;;;;;;4995715;28;19910;-66
2023/08/04 01:35:10;;;;;;;;;;;18.90;72.80;;;;;;4995566;28;19987;-67
2023/08/04 01:37:36;;;;;;;;;;;19.00;72.80;;;;;;4995301;28;19910;-67
2023/08/04 01:40:01;;;;;;;;;;;19.00;72.90;;;;;;4995159;28;20352;-67
2023/08/04 01:42:27;;;;;;;;;;;19.00;72.80;;;;;;4995448;28;20281;-67
2023/08/04 01:44:52;;;;;;;;;;;19.10;72.90;;;;;;4995585;28;19914;-67
2023/08/04 01:47:18;;;;;;;;;;;19.10;72.90;;;;;;4995096;28;19918;-67
2023/08/04 01:49:43;;;;;;;;;;;19.10;72.90;;;;;;4995103;28;19918;-67
2023/08/04 01:52:09;;;;;;;;;;;19.20;72.80;;;;;;4995142;28;20385;-67
2023/08/04 01:54:34;;;;;;;;;;;19.20;72.80;;;;;;4995361;28;19917;-67
2023/08/04 01:57:00;;;;;;;;;;;19.20;72.70;;;;;;4995003;28;20373;-67
2023/08/04 01:59:25;;;;;;;;;;;19.20;72.60;;;;;;4995232;28;20009;-66
2023/08/04 02:01:50;;;;;;;;;;;19.20;72.60;;;;;;4994977;28;19929;-67
2023/08/04 02:04:16;;;;;;;;;;;19.20;72.60;;;;;;4995262;28;19918;-67
2023/08/04 02:06:41;;;;;;;;;;;19.30;72.60;;;;;;4995100;28;20012;-67
2023/08/04 02:09:07;;;;;;;;;;;19.30;72.60;;;;;;4994652;28;19988;-67
2023/08/04 02:11:32;;;;;;;;;;;19.30;72.60;;;;;;4994762;28;19993;-67
2023/08/04 02:13:58;;;;;;;;;;;19.30;72.70;;;;;;4994899;28;20404;-67
2023/08/04 02:16:24;;;;;;;;;;;19.30;72.60;;;;;;4994684;28;20333;-66
2023/08/04 02:18:49;;;;;;;;;;;19.30;72.60;;;;;;4994706;28;19913;-68
2023/08/04 02:21:15;;;;;;;;;;;19.30;72.60;;;;;;4994786;28;20016;-67
2023/08/04 02:23:40;;;;;;;;;;;19.30;72.60;;;;;;4994569;28;20388;-67
2023/08/04 02:26:05;;;;;;;;;;;19.40;72.60;;;;;;4994506;28;19914;-67
2023/08/04 02:28:31;;;;;;;;;;;19.40;72.60;;;;;;4994407;28;19929;-67
2023/08/04 02:30:58;;;;;;;;;;;19.40;72.50;;;;;;4994461;28;20424;-67
2023/08/04 02:33:24;;;;;;;;;;;19.40;72.50;;;;;;4994249;28;19920;-67
2023/08/04 02:35:49;;;;;;;;;;;19.40;72.40;;;;;;4994609;28;20004;-67
2023/08/04 02:38:15;;;;;;;;;;;19.30;72.30;;;;;;4994346;28;19913;-67
2023/08/04 02:40:40;;;;;;;;;;;19.30;72.20;;;;;;4994325;28;20374;-67
2023/08/04 02:43:05;;;;;;;;;;;19.30;72.10;;;;;;4994108;28;19914;-66
2023/08/04 02:45:32;;;;;;;;;;;19.30;71.90;;;;;;4976534;28;19993;-66
2023/08/04 02:47:57;;;;;;;;;;;19.20;71.90;;;;;;4994031;28;19918;-66
2023/08/04 02:50:22;;;;;;;;;;;19.20;71.90;;;;;;4994294;28;19921;-66
2023/08/04 02:52:48;;;;;;;;;;;19.10;71.80;;;;;;4994090;28;19910;-67
2023/08/04 02:55:13;;;;;;;;;;;19.10;71.90;;;;;;4993908;28;19961;-67
2023/08/04 02:57:39;;;;;;;;;;;19.10;71.90;;;;;;4994081;28;19910;-67
2023/08/04 03:00:07;;;;;;;;;;;19.00;71.90;;;;;;4993762;28;19953;-67
2023/08/04 03:02:32;;;;;;;;;;;19.00;72.00;;;;;;4993812;28;19938;-68
2023/08/04 03:04:58;;;;;;;;;;;19.00;72.00;;;;;;4993973;28;19918;-67
2023/08/04 03:07:24;;;;;;;;;;;19.00;71.90;;;;;;4993779;28;19972;-67
2023/08/04 03:09:49;;;;;;;;;;;18.90;72.00;;;;;;4994106;28;19917;-67
2023/08/04 03:12:15;;;;;;;;;;;18.90;72.00;;;;;;4993471;28;19918;-67
2023/08/04 03:14:40;;;;;;;;;;;18.80;72.00;;;;;;4994008;28;20044;-67
2023/08/04 03:17:05;;;;;;;;;;;18.80;72.10;;;;;;4993825;28;19922;-67
2023/08/04 03:19:31;;;;;;;;;;;18.80;72.10;;;;;;4993640;28;20464;-67
2023/08/04 03:21:56;;;;;;;;;;;18.80;72.20;;;;;;4993509;28;19940;-67
2023/08/04 03:24:22;;;;;;;;;;;18.80;72.30;;;;;;4993093;28;19914;-67
2023/08/04 03:26:47;;;;;;;;;;;18.80;72.50;;;;;;4993322;28;19992;-67
2023/08/04 03:29:13;;;;;;;;;;;18.90;72.70;;;;;;4993500;28;19914;-67
2023/08/04 03:31:38;;;;;;;;;;;18.90;72.70;;;;;;4993324;28;19918;-67
2023/08/04 03:34:04;;;;;;;;;;;19.00;72.80;;;;;;4993733;28;19910;-67
2023/08/04 03:36:30;;;;;;;;;;;19.00;72.70;;;;;;4993069;28;20369;-67
2023/08/04 03:38:56;;;;;;;;;;;19.10;72.70;;;;;;4992854;28;19910;-66
2023/08/04 03:41:21;;;;;;;;;;;19.10;72.70;;;;;;4993211;28;19968;-66
2023/08/04 03:43:47;;;;;;;;;;;19.20;72.70;;;;;;4992922;28;19910;-66
2023/08/04 03:46:12;;;;;;;;;;;19.20;72.80;;;;;;4993016;28;19918;-67
2023/08/04 03:48:38;;;;;;;;;;;19.30;72.70;;;;;;4992799;28;19918;-70
2023/08/04 03:51:03;;;;;;;;;;;19.30;72.60;;;;;;4993230;28;19941;-71
2023/08/04 03:53:29;;;;;;;;;;;19.30;72.70;;;;;;4992975;28;20012;-71
2023/08/04 03:55:54;;;;;;;;;;;19.40;72.70;;;;;;4992968;28;19968;-71
2023/08/04 03:58:19;;;;;;;;;;;19.30;72.60;;;;;;4992921;28;19914;-71
2023/08/04 04:00:45;;;;;;;;;;;19.40;72.60;;;;;;4992803;28;19921;-71
2023/08/04 04:03:11;;;;;;;;;;;19.40;72.60;;;;;;4992752;28;20097;-70
2023/08/04 04:05:38;;;;;;;;;;;19.40;72.50;;;;;;4992880;28;19968;-70
2023/08/04 04:08:04;;;;;;;;;;;19.50;72.50;;;;;;4992901;28;20031;-71
2023/08/04 04:10:29;;;;;;;;;;;19.50;72.50;;;;;;4992622;28;19973;-70
2023/08/04 04:12:54;;;;;;;;;;;19.50;72.50;;;;;;4992588;28;20346;-70
2023/08/04 04:15:20;;;;;;;;;;;19.50;72.50;;;;;;4992394;28;19914;-70
2023/08/04 04:17:45;;;;;;;;;;;19.50;72.50;;;;;;4992474;28;19964;-71
2023/08/04 04:20:11;;;;;;;;;;;19.50;72.50;;;;;;4975083;28;19924;-70
2023/08/04 04:22:36;;;;;;;;;;;19.50;72.60;;;;;;4992842;28;19909;-71
2023/08/04 04:25:02;;;;;;;;;;;19.60;72.60;;;;;;4992286;28;19968;-71
2023/08/04 04:27:28;;;;;;;;;;;19.60;72.60;;;;;;4992410;28;20325;-70
2023/08/04 04:29:53;;;;;;;;;;;19.60;72.60;;;;;;4992782;28;19964;-71
2023/08/04 04:32:19;;;;;;;;;;;19.60;72.50;;;;;;4992363;28;19921;-70
2023/08/04 04:34:44;;;;;;;;;;;19.60;72.50;;;;;;4992778;28;19909;-70
2023/08/04 04:37:10;;;;;;;;;;;19.70;72.50;;;;;;4992574;28;19925;-71
2023/08/04 04:39:35;;;;;;;;;;;19.70;72.60;;;;;;4992493;28;19913;-71
2023/08/04 04:42:02;;;;;;;;;;;19.70;72.60;;;;;;4992318;28;19921;-70
2023/08/04 04:44:28;;;;;;;;;;;19.70;72.60;;;;;;4992316;28;19913;-70
2023/08/04 04:46:53;;;;;;;;;;;19.70;72.60;;;;;;4992177;28;19964;-71
2023/08/04 04:49:19;;;;;;;;;;;19.80;72.70;;;;;;4991849;28;19918;-71
2023/08/04 04:51:45;;;;;;;;;;;19.80;72.70;;;;;;4994337;28;19914;-70
2023/08/04 04:54:10;;;;;;;;;;;19.80;72.80;;;;;;4996812;28;19914;-71
2023/08/04 04:56:37;;;;;;;;;;;19.90;72.70;;;;;;4996079;28;19918;-71
2023/08/04 04:59:02;;;;;;;;;;;19.90;72.80;;;;;;4996485;28;19925;-67
2023/08/04 05:01:28;;;;;;;;;;;20.00;72.90;;;;;;4996033;28;19922;-67
2023/08/04 05:03:54;;;;;;;;;;;20.10;72.90;;;;;;4996255;28;20239;-66
2023/08/04 05:06:19;;;;;;;;;;;20.20;73.00;;;;;;4996058;28;19918;-66
2023/08/04 05:08:44;;;;;;;;;;;20.30;73.30;;;;;;4996275;28;19921;-66
2023/08/04 05:11:10;;;;;;;;;;;20.40;73.30;;;;;;4995948;28;20429;-68
2023/08/04 05:13:35;;;;;;;;;;;20.50;73.30;;;;;;4995839;28;19917;-67
2023/08/04 05:16:01;;;;;;;;;;;20.70;73.30;;;;;;4995815;28;19922;-67
2023/08/04 05:18:26;;;;;;;;;;;20.80;73.20;;;;;;4995960;28;19953;-67
2023/08/04 05:20:52;;;;;;;;;;;20.80;73.30;;;;;;4995715;28;19921;-67
2023/08/04 05:23:17;;;;;;;;;;;21.00;73.30;;;;;;4996034;28;20012;-67
2023/08/04 05:25:43;;;;;;;;;;;21.10;73.30;;;;;;4995609;28;19940;-67
2023/08/04 05:28:22;;;;;;;;;;;21.20;73.30;;;;;;4995593;28;19914;-67
2023/08/04 05:30:47;;;;;;;;;;;21.20;73.30;;;;;;4995814;28;20389;-67
2023/08/04 05:33:13;;;;;;;;;;;21.30;73.10;;;;;;4995559;28;20025;-67
2023/08/04 05:35:38;;;;;;;;;;;21.30;73.10;;;;;;4995424;28;19929;-67
2023/08/04 05:38:04;;;;;;;;;;;21.30;72.90;;;;;;4995613;28;19969;-67
2023/08/04 05:40:32;;;;;;;;;;;21.40;73.00;;;;;;4995227;28;19963;-68
2023/08/04 05:42:58;;;;;;;;;;;21.50;73.30;;;;;;4995517;28;19933;-67
2023/08/04 05:45:24;;;;;;;;;;;21.60;73.30;;;;;;4995209;28;19924;-68
2023/08/04 05:47:49;;;;;;;;;;;21.70;73.40;;;;;;4995302;28;19914;-67
2023/08/04 05:50:15;;;;;;;;;;;21.80;73.70;;;;;;4995138;28;19918;-67
2023/08/04 05:52:40;;;;;;;;;;;22.10;73.60;;;;;;4995084;28;19909;-67
2023/08/04 05:55:06;;;;;;;;;;;22.30;73.70;;;;;;4995106;28;20392;-67
2023/08/04 05:57:31;;;;;;;;;;;22.40;73.70;;;;;;4994995;28;20286;-67
2023/08/04 05:59:57;;;;;;;;;;;22.50;73.10;;;;;;4995046;28;19914;-67
2023/08/04 06:02:22;;;;;;;;;;;22.50;73.10;;;;;;4994771;28;19916;-67
2023/08/04 06:04:48;;;;;;;;;;;22.60;73.10;;;;;;4995348;28;19961;-67
2023/08/04 06:07:13;;;;;;;;;;;22.80;73.40;;;;;;4994846;28;19918;-67
2023/08/04 06:09:39;;;;;;;;;;;22.80;73.20;;;;;;4994806;28;19921;-70
2023/08/04 06:12:04;;;;;;;;;;;23.00;73.30;;;;;;4994872;28;19925;-70
2023/08/04 06:14:30;;;;;;;;;;;23.10;73.40;;;;;;4995045;28;19914;-70
2023/08/04 06:16:55;;;;;;;;;;;23.20;73.30;;;;;;4994964;28;19918;-70
2023/08/04 06:19:20;;;;;;;;;;;23.30;73.20;;;;;;4995101;28;20001;-70
2023/08/04 06:21:46;;;;;;;;;;;23.30;73.00;;;;;;4994610;28;19922;-70
2023/08/04 06:24:24;;;;;;;;;;;23.40;73.30;;;;;;4994828;28;19918;-70
2023/08/04 06:26:49;;;;;;;;;;;23.60;73.40;;;;;;4994604;28;20571;-70
2023/08/04 06:29:15;;;;;;;;;;;23.70;73.30;;;;;;4994752;28;19992;-70
2023/08/04 06:31:40;;;;;;;;;;;23.80;73.40;;;;;;4994373;28;19961;-70
2023/08/04 06:34:06;;;;;;;;;;;24.00;73.40;;;;;;4994713;28;19914;-70
2023/08/04 06:36:31;;;;;;;;;;;24.20;73.50;;;;;;4993757;28;19925;-70
2023/08/04 06:38:57;;;;;;;;;;;24.30;73.40;;;;;;4994606;28;19914;-70
2023/08/04 06:41:22;;;;;;;;;;;24.40;73.10;;;;;;4994324;28;20369;-70
2023/08/04 06:43:48;;;;;;;;;;;24.40;72.70;;;;;;4994375;28;20358;-70
2023/08/04 06:46:13;;;;;;;;;;;24.50;73.10;;;;;;4994204;28;19914;-70
2023/08/04 06:48:39;;;;;;;;;;;24.60;73.00;;;;;;4993780;28;19925;-70
2023/08/04 06:51:04;;;;;;;;;;;24.70;72.60;;;;;;4994419;28;19914;-69
2023/08/04 06:53:30;;;;;;;;;;;24.80;72.50;;;;;;4994098;28;19913;-70
2023/08/04 06:55:55;;;;;;;;;;;24.90;72.80;;;;;;4994087;28;19920;-70
2023/08/04 06:58:21;;;;;;;;;;;25.00;72.80;;;;;;4994254;28;19914;-69
2023/08/04 07:00:46;;;;;;;;;;;25.20;73.20;;;;;;4993903;28;20294;-69
2023/08/04 07:03:12;;;;;;;;;;;25.40;73.50;;;;;;4993924;28;19922;-69
2023/08/04 07:05:38;;;;;;;;;;;25.50;73.20;;;;;;4994301;28;20365;-69
2023/08/04 07:08:03;;;;;;;;;;;25.70;72.80;;;;;;4993686;28;19924;-69
2023/08/04 07:10:29;;;;;;;;;;;25.80;73.00;;;;;;4993613;28;20301;-69
2023/08/04 07:12:54;;;;;;;;;;;25.90;72.50;;;;;;4993565;28;20293;-69
2023/08/04 07:15:20;;;;;;;;;;;25.90;72.30;;;;;;4992986;28;19914;-68
2023/08/04 07:17:45;;;;;;;;;;;25.80;71.90;;;;;;4993551;28;19909;-68
2023/08/04 07:20:11;;;;;;;;;;;25.90;72.60;;;;;;4993795;28;20012;-68
2023/08/04 07:22:37;;;;;;;;;;;26.00;72.70;;;;;;4993739;28;19910;-68
2023/08/04 07:25:03;;;;;;;;;;;26.00;72.20;;;;;;4993380;28;20452;-68
2023/08/04 07:27:28;;;;;;;;;;;26.00;72.30;;;;;;4993284;28;20004;-68
2023/08/04 07:29:53;;;;;;;;;;;26.10;72.60;;;;;;4993807;28;19914;-68
2023/08/04 07:32:19;;;;;;;;;;;26.20;72.20;;;;;;4993381;28;19914;-68
2023/08/04 07:34:44;;;;;;;;;;;26.30;72.60;;;;;;4993816;28;20373;-68
2023/08/04 07:37:10;;;;;;;;;;;26.50;73.20;;;;;;4993251;28;19959;-68
2023/08/04 07:39:35;;;;;;;;;;;27.00;74.80;;;;;;4993372;28;19914;-68
2023/08/04 07:42:01;;;;;;;;;;;27.70;75.60;;;;;;4993219;28;20293;-69
2023/08/04 07:44:26;;;;;;;;;;;28.40;75.30;;;;;;4993255;28;19961;-69
2023/08/04 07:46:52;;;;;;;;;;;29.20;76.10;;;;;;4993043;28;19941;-68
2023/08/04 07:49:17;;;;;;;;;;;30.00;75.50;;;;;;4992934;28;20258;-69
2023/08/04 07:51:44;;;;;;;;;;;30.80;76.10;;;;;;4992906;28;19914;-69
2023/08/04 07:54:09;;;;;;;;;;;31.70;75.60;;;;;;4993194;28;19918;-69
2023/08/04 07:56:35;;;;;;;;;;;32.40;74.30;;;;;;4976004;28;19918;-69
2023/08/04 07:59:00;;;;;;;;;;;32.90;73.50;;;;;;4992748;28;19953;-69
2023/08/04 08:01:26;;;;;;;;;;;33.30;73.50;;;;;;4992885;28;20000;-69
2023/08/04 08:03:51;;;;;;;;;;;33.90;73.80;;;;;;4993160;28;20256;-70
2023/08/04 08:06:16;;;;;;;;;;;34.50;74.40;;;;;;4992715;28;19926;-70
2023/08/04 08:08:44;;;;;;;;;;;35.20;73.80;;;;;;4992328;28;19925;-70
2023/08/04 08:11:09;;;;;;;;;;;35.70;74.10;;;;;;4992215;28;20273;-70
2023/08/04 08:13:35;;;;;;;;;;;35.90;71.10;;;;;;4992492;28;19945;-70
2023/08/04 08:16:07;;;;;;;;;;;35.70;69.40;;;;;;4992115;28;19917;-70
2023/08/04 08:18:33;;;;;;;;;;;35.50;69.40;;;;;;4992538;28;19918;-71
2023/08/04 08:20:58;;;;;;;;;;;35.20;69.90;;;;;;4993084;28;20014;-70
2023/08/04 08:23:23;;;;;;;;;;;35.00;70.10;;;;;;4992794;28;19920;-70
2023/08/04 08:25:49;;;;;;;;;;;34.70;69.10;;;;;;4974727;28;19914;-71
2023/08/04 08:28:14;;;;;;;;;;;34.40;67.50;;;;;;4992497;28;19960;-71
2023/08/04 08:30:40;;;;;;;;;;;34.00;68.20;;;;;;4992282;28;19914;-71
2023/08/04 08:33:06;;;;;;;;;;;33.60;67.70;;;;;;4992479;28;19914;-70
2023/08/04 08:35:31;;;;;;;;;;;33.20;67.50;;;;;;4992258;28;20364;-73
2023/08/04 08:37:57;;;;;;;;;;;32.80;67.40;;;;;;4992547;28;20381;-71
2023/08/04 08:40:23;;;;;;;;;;;32.40;68.50;;;;;;4992293;28;19972;-72
2023/08/04 08:42:48;;;;;;;;;;;32.10;68.10;;;;;;4991771;28;19914;-72
2023/08/04 08:45:14;;;;;;;;;;;31.80;69.00;;;;;;4991740;28;19976;-71
2023/08/04 08:47:40;;;;;;;;;;;32.10;72.70;;;;;;4992013;28;19914;-71
2023/08/04 08:50:06;;;;;;;;;;;32.30;73.90;;;;;;4992062;28;19926;-71
2023/08/04 08:52:35;;;;;;;;;;;32.60;72.70;;;;;;4992138;28;20424;-71
2023/08/04 08:55:02;;;;;;;;;;;32.80;73.30;;;;;;4992239;28;19953;-70
2023/08/04 08:57:28;;;;;;;;;;;33.30;73.20;;;;;;4992193;28;19910;-71
2023/08/04 08:59:56;;;;;;;;;;;33.70;72.70;;;;;;4992580;28;20272;-71
2023/08/04 09:02:22;;;;;;;;;;;34.00;71.80;;;;;;4992170;28;20396;-70
2023/08/04 09:04:47;;;;;;;;;;;34.30;70.70;;;;;;4992469;28;19918;-71
2023/08/04 09:07:12;;;;;;;;;;;34.50;70.50;;;;;;4992074;28;19921;-71
2023/08/04 09:09:38;;;;;;;;;;;34.50;68.10;;;;;;4992553;28;19914;-71
2023/08/04 09:12:05;;;;;;;;;;;34.30;65.30;;;;;;4992364;28;19914;-70
2023/08/04 09:14:45;;;;;;;;;;;33.90;64.40;;;;;;4992430;28;20377;-70
2023/08/04 09:17:11;;;;;;;;;;;33.60;65.10;;;;;;4992008;28;19918;-70
2023/08/04 09:19:37;;;;;;;;;;;33.40;67.30;;;;;;4992503;28;19936;-70
2023/08/04 09:22:02;;;;;;;;;;;33.30;66.60;;;;;;4974503;28;19917;-70
2023/08/04 09:24:28;;;;;;;;;;;33.20;67.90;;;;;;4992118;28;20464;-70
2023/08/04 09:26:53;;;;;;;;;;;33.20;67.70;;;;;;4991931;28;19921;-70
2023/08/04 09:29:22;;;;;;;;;;;33.10;67.50;;;;;;4992163;28;19925;-70
2023/08/04 09:31:48;;;;;;;;;;;33.00;67.80;;;;;;4991265;28;20344;-70
2023/08/04 09:34:13;;;;;;;;;;;33.00;66.60;;;;;;4991725;28;19914;-70
2023/08/04 09:36:45;;;;;;;;;;;33.00;66.70;;;;;;4991590;28;19937;-70
2023/08/04 09:39:12;;;;;;;;;;;33.00;66.60;;;;;;4993006;28;19917;-71
2023/08/04 09:41:44;;;;;;;;;;;32.80;65.90;;;;;;4995569;28;19953;-70
2023/08/04 09:44:11;;;;;;;;;;;32.70;62.20;;;;;;4995679;28;19918;-71
2023/08/04 09:46:52;;;;;;;;;;;32.50;64.30;;;;;;4995564;28;20431;-70
2023/08/04 09:49:18;;;;;;;;;;;32.40;64.20;;;;;;4994975;28;19946;-70
2023/08/04 09:51:44;;;;;;;;;;;32.40;62.20;;;;;;4977809;28;20415;-70
2023/08/04 09:54:10;;;;;;;;;;;32.40;64.00;;;;;;4995396;28;20013;-71
2023/08/04 09:56:35;;;;;;;;;;;32.40;62.60;;;;;;4977925;28;19980;-70
2023/08/04 09:59:01;;;;;;;;;;;32.30;58.70;;;;;;4995386;28;19914;-70
2023/08/04 10:01:28;;;;;;;;;;;32.20;61.30;;;;;;4995001;28;19914;-70
2023/08/04 10:03:54;;;;;;;;;;;32.20;60.60;;;;;;4995192;28;19914;-71
2023/08/04 10:06:20;;;;;;;;;;;32.20;62.60;;;;;;4995046;28;19921;-70
2023/08/04 10:08:46;;;;;;;;;;;32.30;62.10;;;;;;4994923;28;20064;-70
2023/08/04 10:11:12;;;;;;;;;;;32.30;62.80;;;;;;4995357;28;19929;-72
2023/08/04 10:13:40;;;;;;;;;;;32.50;63.30;;;;;;5009167;28;19922;-68
2023/08/04 10:16:07;;;;;;;;;;;32.70;62.40;;;;;;4993587;28;20068;-69
2023/08/04 10:18:52;;;;;;;;;;;32.80;62.70;;;;;;4995167;28;19922;-69
2023/08/04 10:21:39;;;;;;;;;;;33.00;62.90;;;;;;4996406;28;20004;-69
2023/08/04 10:24:06;;;;;;;;;;;33.10;62.20;;;;;;5004341;28;19921;-69
2023/08/04 10:26:43;;;;;;;;;;;33.30;58.40;;;;;;4998257;28;20300;-69
2023/08/04 10:29:09;;;;;;;;;;;33.40;61.20;;;;;;5014598;28;19917;-70
2023/08/04 10:31:40;;;;;;;;;;;33.70;61.00;;;;;;4996189;28;19983;-70
2023/08/04 10:34:21;;;;;;;;;;;34.00;60.20;;;;;;5002426;28;19922;-69
2023/08/04 10:37:16;;;;;;;;;;;34.30;60.10;;;;;;5000062;28;20277;-69
2023/08/04 10:39:42;;;;;;;;;;;34.30;56.30;;;;;;5012412;28;19929;-70
2023/08/04 10:42:10;;;;;;;;;;;34.30;56.30;;;;;;5013678;28;19913;-68
2023/08/04 10:44:48;;;;;;;;;;;34.10;55.60;;;;;;4997690;28;19914;-70
2023/08/04 10:47:13;;;;;;;;;;;34.00;54.60;;;;;;5003617;28;19925;-70
2023/08/04 10:49:39;;;;;;;;;;;33.80;54.10;;;;;;4996000;28;20369;-69
2023/08/04 10:52:05;;;;;;;;;;;33.70;54.80;;;;;;5013375;28;19936;-70
2023/08/04 10:54:30;;;;;;;;;;;33.60;56.30;;;;;;4998086;28;19914;-69
2023/08/04 10:56:56;;;;;;;;;;;33.70;56.20;;;;;;5000918;28;19913;-68
2023/08/04 10:59:21;;;;;;;;;;;33.70;54.80;;;;;;5013659;28;20056;-70
2023/08/04 11:01:47;;;;;;;;;;;33.90;56.70;;;;;;5013459;28;19924;-69
2023/08/04 11:04:14;;;;;;;;;;;34.00;55.60;;;;;;5000516;28;21362;-69
2023/08/04 11:06:39;;;;;;;;;;;34.20;55.80;;;;;;4998401;28;19913;-69
2023/08/04 11:09:05;;;;;;;;;;;34.30;56.40;;;;;;5013508;28;20358;-68
2023/08/04 11:11:31;;;;;;;;;;;34.50;49.90;;;;;;5013022;28;19953;-69
2023/08/04 11:13:57;;;;;;;;;;;34.30;49.80;;;;;;5002176;28;20361;-69
2023/08/04 11:16:25;;;;;;;;;;;34.20;45.90;;;;;;4996378;28;19929;-69
2023/08/04 11:18:53;;;;;;;;;;;33.90;47.90;;;;;;5013498;28;19960;-69
2023/08/04 11:21:19;;;;;;;;;;;33.80;45.90;;;;;;5012908;28;19914;-68
2023/08/04 11:23:44;;;;;;;;;;;33.60;44.90;;;;;;5005649;28;20463;-70
2023/08/04 11:26:09;;;;;;;;;;;33.40;47.40;;;;;;4992181;28;19921;-69
2023/08/04 11:28:35;;;;;;;;;;;33.50;48.10;;;;;;5013131;28;19918;-69
2023/08/04 11:31:07;;;;;;;;;;;33.70;47.20;;;;;;5012582;28;19913;-69
2023/08/04 11:33:33;;;;;;;;;;;33.90;46.20;;;;;;4974116;28;19922;-69
2023/08/04 11:36:04;;;;;;;;;;;34.10;47.40;;;;;;4989650;28;19914;-69
2023/08/04 11:38:30;;;;;;;;;;;34.40;45.00;;;;;;4973850;28;19915;-69
2023/08/04 11:40:57;;;;;;;;;;;34.30;42.40;;;;;;4973939;28;19914;-69
2023/08/04 11:43:22;;;;;;;;;;;34.00;42.70;;;;;;4990926;28;19917;-69
2023/08/04 11:45:48;;;;;;;;;;;34.20;45.20;;;;;;4971180;28;19913;-68
2023/08/04 11:48:14;;;;;;;;;;;34.00;42.80;;;;;;5010108;28;19923;-68
2023/08/04 11:50:39;;;;;;;;;;;33.90;44.00;;;;;;5012657;28;20377;-69
2023/08/04 11:53:05;;;;;;;;;;;33.80;43.80;;;;;;5011969;28;19913;-69
2023/08/04 11:55:32;;;;;;;;;;;33.60;40.80;;;;;;4988861;28;20435;-69
2023/08/04 11:57:59;;;;;;;;;;;33.30;43.90;;;;;;5008355;28;19914;-69
2023/08/04 12:00:37;;;;;;;;;;;33.50;43.50;;;;;;5011780;28;19917;-69
2023/08/04 12:03:03;;;;;;;;;;;33.70;43.30;;;;;;5012061;28;19960;-69
2023/08/04 12:05:30;;;;;;;;;;;33.80;44.90;;;;;;4988294;28;19914;-69
2023/08/04 12:07:56;;;;;;;;;;;33.90;45.20;;;;;;5007480;28;19929;-69
2023/08/04 12:10:23;;;;;;;;;;;33.80;42.80;;;;;;5012150;28;19920;-69
2023/08/04 12:12:49;;;;;;;;;;;33.70;44.00;;;;;;5011898;28;19909;-70
2023/08/04 12:15:14;;;;;;;;;;;33.60;44.40;;;;;;4990100;28;19918;-69
2023/08/04 12:17:41;;;;;;;;;;;33.60;43.80;;;;;;5005425;28;20004;-69
2023/08/04 12:20:10;;;;;;;;;;;33.60;42.90;;;;;;5012342;28;19913;-69
2023/08/04 12:22:36;;;;;;;;;;;33.90;41.50;;;;;;4999559;28;20301;-69
2023/08/04 12:25:05;;;;;;;;;;;34.00;42.10;;;;;;4986684;28;19914;-69
2023/08/04 12:27:30;;;;;;;;;;;34.30;42.00;;;;;;5004047;28;19913;-69
2023/08/04 12:29:56;;;;;;;;;;;34.50;42.20;;;;;;5012389;28;19921;-69
2023/08/04 12:32:22;;;;;;;;;;;34.70;38.40;;;;;;5011596;28;19966;-69
2023/08/04 12:34:47;;;;;;;;;;;34.60;38.50;;;;;;4993916;28;19918;-69
2023/08/04 12:37:12;;;;;;;;;;;34.70;37.50;;;;;;5001491;28;20009;-70
2023/08/04 12:39:38;;;;;;;;;;;34.90;39.20;;;;;;5012435;28;19913;-69
2023/08/04 12:42:03;;;;;;;;;;;35.20;39.20;;;;;;5011549;28;19913;-69
2023/08/04 12:44:30;;;;;;;;;;;35.40;39.10;;;;;;4996266;28;19914;-69
2023/08/04 12:46:56;;;;;;;;;;;35.40;36.80;;;;;;4998954;28;19967;-69
2023/08/04 12:49:21;;;;;;;;;;;35.40;39.10;;;;;;5011492;28;19921;-69
2023/08/04 12:51:47;;;;;;;;;;;35.70;38.80;;;;;;5011520;28;20408;-69
2023/08/04 12:54:12;;;;;;;;;;;35.80;39.50;;;;;;4998650;28;20000;-69
2023/08/04 12:56:38;;;;;;;;;;;36.00;37.70;;;;;;4997179;28;19917;-68
2023/08/04 12:59:03;;;;;;;;;;;36.00;35.10;;;;;;5011927;28;19913;-69
2023/08/04 13:01:29;;;;;;;;;;;35.80;35.80;;;;;;5011496;28;19917;-69
2023/08/04 13:03:54;;;;;;;;;;;35.70;34.30;;;;;;5001755;28;19913;-70
2023/08/04 13:06:20;;;;;;;;;;;35.60;34.90;;;;;;4991898;28;19914;-69
2023/08/04 13:08:45;;;;;;;;;;;35.60;35.90;;;;;;5011684;28;19924;-68
2023/08/04 13:11:11;;;;;;;;;;;35.70;35.80;;;;;;5011285;28;19956;-68
2023/08/04 13:13:36;;;;;;;;;;;35.80;35.00;;;;;;5010357;28;20279;-69
2023/08/04 13:16:02;;;;;;;;;;;36.00;35.80;;;;;;4991718;28;19917;-68
2023/08/04 13:18:27;;;;;;;;;;;36.20;35.20;;;;;;5015104;28;19914;-69
2023/08/04 13:20:53;;;;;;;;;;;36.30;34.20;;;;;;5015292;28;20365;-69
2023/08/04 13:23:18;;;;;;;;;;;36.20;33.60;;;;;;5013795;28;19917;-69
2023/08/04 13:25:44;;;;;;;;;;;35.80;34.40;;;;;;4972078;28;19921;-68
2023/08/04 13:28:09;;;;;;;;;;;35.70;33.20;;;;;;5012302;28;19968;-68
2023/08/04 13:30:35;;;;;;;;;;;35.70;33.70;;;;;;5014980;28;19913;-69
2023/08/04 13:33:01;;;;;;;;;;;35.70;34.60;;;;;;5014857;28;19920;-69
2023/08/04 13:35:27;;;;;;;;;;;35.50;34.70;;;;;;4990838;28;19914;-69
2023/08/04 13:37:52;;;;;;;;;;;35.50;33.20;;;;;;5010209;28;19913;-70
2023/08/04 13:40:18;;;;;;;;;;;35.70;32.80;;;;;;5014928;28;19914;-69
2023/08/04 13:42:43;;;;;;;;;;;35.90;33.70;;;;;;5014780;28;20280;-69
2023/08/04 13:45:09;;;;;;;;;;;36.10;30.30;;;;;;4992959;28;19922;-70
2023/08/04 13:47:35;;;;;;;;;;;36.10;32.00;;;;;;5007103;28;19921;-69
2023/08/04 13:50:00;;;;;;;;;;;36.10;31.80;;;;;;5014668;28;19921;-69
2023/08/04 13:52:26;;;;;;;;;;;35.90;32.30;;;;;;4996925;28;19913;-69
2023/08/04 13:54:51;;;;;;;;;;;35.70;33.10;;;;;;4995628;28;19918;-70
2023/08/04 13:57:17;;;;;;;;;;;35.50;33.10;;;;;;5004688;28;19913;-70
2023/08/04 13:59:42;;;;;;;;;;;35.30;33.30;;;;;;5015117;28;19936;-70
2023/08/04 14:02:09;;;;;;;;;;;35.10;32.60;;;;;;5014203;28;19924;-69
2023/08/04 14:04:35;;;;;;;;;;;34.80;33.80;;;;;;5014544;28;19909;-70
2023/08/04 14:07:00;;;;;;;;;;;34.60;34.20;;;;;;5012650;28;19983;-70
2023/08/04 14:09:26;;;;;;;;;;;34.50;34.60;;;;;;4994863;28;20342;-70